sensor_id;sensor_type;location;lat;lon;timestamp;temperature;humidity
30851;DHT22;17567;48.382;9.102;2023-08-06T00:01:52;14.20;99.90
30851;DHT22;17567;48.382;9.102;2023-08-06T00:06:53;14.10;99.90
30851;DHT22;17567;48.382;9.102;2023-08-06T00:11:53;14.00;99.90
30851;DHT22;17567;48.382;9.102;2023-08-06T00:16:54;13.90;99.90
30851;DHT22;17567;48.382;9.102;2023-08-06T00:21:54;13.80;99.90
30851;DHT22;17567;48.382;9.102;2023-08-06T00:26:55;13.80;99.90
30851;DHT22;17567;48.382;9.102;2023-08-06T00:31:56;13.60;99.90
30851;DHT22;17567;48.382;9.102;2023-08-06T00:36:56;13.50;99.90
30851;DHT22;17567;48.382;9.102;2023-08-06T00:41:57;13.60;99.90
30851;DHT22;17567;48.382;9.102;2023-08-06T00:46:58;13.70;99.90
30851;DHT22;17567;48.382;9.102;2023-08-06T00:51:59;13.50;99.90
30851;DHT22;17567;48.382;9.102;2023-08-06T00:57:01;13.30;99.90
30851;DHT22;17567;48.382;9.102;2023-08-06T01:02:02;13.20;99.90
30851;DHT22;17567;48.382;9.102;2023-08-06T01:07:10;13.20;99.90
30851;DHT22;17567;48.382;9.102;2023-08-06T01:12:25;13.10;99.90
30851;DHT22;17567;48.382;9.102;2023-08-06T01:17:32;13.00;99.90
30851;DHT22;17567;48.382;9.102;2023-08-06T01:22:34;13.00;99.90
30851;DHT22;17567;48.382;9.102;2023-08-06T01:32:50;13.00;99.90
30851;DHT22;17567;48.382;9.102;2023-08-06T01:37:53;13.00;99.90
30851;DHT22;17567;48.382;9.102;2023-08-06T01:42:55;12.90;99.90
30851;DHT22;17567;48.382;9.102;2023-08-06T01:47:55;12.80;99.90
30851;DHT22;17567;48.382;9.102;2023-08-06T01:52:56;12.70;99.90
30851;DHT22;17567;48.382;9.102;2023-08-06T01:57:56;12.60;99.90
30851;DHT22;17567;48.382;9.102;2023-08-06T02:02:57;12.60;99.90
30851;DHT22;17567;48.382;9.102;2023-08-06T02:07:57;12.40;99.90
30851;DHT22;17567;48.382;9.102;2023-08-06T02:12:58;12.40;99.90
30851;DHT22;17567;48.382;9.102;2023-08-06T02:17:59;12.40;99.90
30851;DHT22;17567;48.382;9.102;2023-08-06T02:23:00;12.50;99.90
30851;DHT22;17567;48.382;9.102;2023-08-06T02:28:00;12.50;99.90
30851;DHT22;17567;48.382;9.102;2023-08-06T02:33:01;12.50;99.90
30851;DHT22;17567;48.382;9.102;2023-08-06T02:38:01;12.50;99.90
30851;DHT22;17567;48.382;9.102;2023-08-06T02:43:02;12.50;99.90
30851;DHT22;17567;48.382;9.102;2023-08-06T02:48:03;12.50;99.90
30851;DHT22;17567;48.382;9.102;2023-08-06T02:53:03;12.50;99.90
30851;DHT22;17567;48.382;9.102;2023-08-06T02:58:04;12.50;99.90
30851;DHT22;17567;48.382;9.102;2023-08-06T03:03:05;12.50;99.90
30851;DHT22;17567;48.382;9.102;2023-08-06T03:08:05;12.50;99.90
30851;DHT22;17567;48.382;9.102;2023-08-06T03:13:06;12.60;99.90
30851;DHT22;17567;48.382;9.102;2023-08-06T03:18:06;12.60;99.90
30851;DHT22;17567;48.382;9.102;2023-08-06T03:23:07;12.70;99.90
30851;DHT22;17567;48.382;9.102;2023-08-06T03:28:07;12.90;99.90
30851;DHT22;17567;48.382;9.102;2023-08-06T03:33:08;13.00;99.90
30851;DHT22;17567;48.382;9.102;2023-08-06T03:38:09;13.00;99.90
30851;DHT22;17567;48.382;9.102;2023-08-06T03:43:09;13.20;99.90
30851;DHT22;17567;48.382;9.102;2023-08-06T03:48:10;13.30;99.90
30851;DHT22;17567;48.382;9.102;2023-08-06T03:53:11;13.20;99.90
30851;DHT22;17567;48.382;9.102;2023-08-06T03:58:11;13.20;99.90
30851;DHT22;17567;48.382;9.102;2023-08-06T04:03:12;13.20;99.90
30851;DHT22;17567;48.382;9.102;2023-08-06T04:08:12;13.20;99.90
30851;DHT22;17567;48.382;9.102;2023-08-06T04:13:13;13.20;99.90
30851;DHT22;17567;48.382;9.102;2023-08-06T04:18:14;13.10;99.90
30851;DHT22;17567;48.382;9.102;2023-08-06T04:23:15;13.20;99.90
30851;DHT22;17567;48.382;9.102;2023-08-06T04:28:16;13.10;99.90
30851;DHT22;17567;48.382;9.102;2023-08-06T04:33:16;13.10;99.90
30851;DHT22;17567;48.382;9.102;2023-08-06T04:38:17;13.10;99.90
30851;DHT22;17567;48.382;9.102;2023-08-06T04:43:17;13.10;99.90
30851;DHT22;17567;48.382;9.102;2023-08-06T04:48:18;13.00;99.90
30851;DHT22;17567;48.382;9.102;2023-08-06T04:53:19;13.00;99.90
30851;DHT22;17567;48.382;9.102;2023-08-06T04:58:19;13.00;99.90
30851;DHT22;17567;48.382;9.102;2023-08-06T05:03:20;13.00;99.90
30851;DHT22;17567;48.382;9.102;2023-08-06T05:08:20;13.20;99.90
30851;DHT22;17567;48.382;9.102;2023-08-06T05:13:21;13.10;99.90
30851;DHT22;17567;48.382;9.102;2023-08-06T05:18:22;13.10;99.90
30851;DHT22;17567;48.382;9.102;2023-08-06T05:23:22;12.90;99.90
30851;DHT22;17567;48.382;9.102;2023-08-06T05:28:23;13.00;99.90
30851;DHT22;17567;48.382;9.102;2023-08-06T05:33:24;12.90;99.90
30851;DHT22;17567;48.382;9.102;2023-08-06T05:38:24;13.00;99.90
30851;DHT22;17567;48.382;9.102;2023-08-06T05:43:25;12.90;99.90
30851;DHT22;17567;48.382;9.102;2023-08-06T05:48:26;13.00;99.90
30851;DHT22;17567;48.382;9.102;2023-08-06T05:53:28;12.90;99.90
30851;DHT22;17567;48.382;9.102;2023-08-06T05:58:28;13.00;99.90
30851;DHT22;17567;48.382;9.102;2023-08-06T06:03:29;13.00;99.90
30851;DHT22;17567;48.382;9.102;2023-08-06T06:08:30;13.00;99.90
30851;DHT22;17567;48.382;9.102;2023-08-06T06:13:30;13.10;99.90
30851;DHT22;17567;48.382;9.102;2023-08-06T06:18:31;13.10;99.90
30851;DHT22;17567;48.382;9.102;2023-08-06T06:23:32;13.10;99.90
30851;DHT22;17567;48.382;9.102;2023-08-06T06:28:32;13.30;99.90
30851;DHT22;17567;48.382;9.102;2023-08-06T06:33:33;13.40;99.90
30851;DHT22;17567;48.382;9.102;2023-08-06T06:38:34;13.30;99.90
30851;DHT22;17567;48.382;9.102;2023-08-06T06:43:35;13.30;99.90
30851;DHT22;17567;48.382;9.102;2023-08-06T06:48:35;13.40;99.90
30851;DHT22;17567;48.382;9.102;2023-08-06T06:53:36;13.70;99.90
30851;DHT22;17567;48.382;9.102;2023-08-06T06:58:37;13.60;99.90
30851;DHT22;17567;48.382;9.102;2023-08-06T07:03:39;13.60;99.90
30851;DHT22;17567;48.382;9.102;2023-08-06T07:08:40;13.70;99.90
30851;DHT22;17567;48.382;9.102;2023-08-06T07:13:41;13.80;99.90
30851;DHT22;17567;48.382;9.102;2023-08-06T07:18:42;13.80;99.90
30851;DHT22;17567;48.382;9.102;2023-08-06T07:23:42;14.00;99.90
30851;DHT22;17567;48.382;9.102;2023-08-06T07:28:43;13.90;99.90
30851;DHT22;17567;48.382;9.102;2023-08-06T07:33:44;13.90;99.90
30851;DHT22;17567;48.382;9.102;2023-08-06T07:38:45;14.00;99.90
30851;DHT22;17567;48.382;9.102;2023-08-06T07:43:46;14.00;99.90
30851;DHT22;17567;48.382;9.102;2023-08-06T07:48:46;14.00;99.90
30851;DHT22;17567;48.382;9.102;2023-08-06T07:53:47;14.20;99.90
30851;DHT22;17567;48.382;9.102;2023-08-06T08:03:50;14.30;99.90
30851;DHT22;17567;48.382;9.102;2023-08-06T08:08:51;14.30;99.90
30851;DHT22;17567;48.382;9.102;2023-08-06T08:13:52;14.00;99.90
30851;DHT22;17567;48.382;9.102;2023-08-06T08:18:52;13.80;99.90
30851;DHT22;17567;48.382;9.102;2023-08-06T08:23:53;14.00;99.90
30851;DHT22;17567;48.382;9.102;2023-08-06T08:28:55;14.20;99.90
30851;DHT22;17567;48.382;9.102;2023-08-06T08:33:56;14.00;99.90
30851;DHT22;17567;48.382;9.102;2023-08-06T08:38:58;13.90;99.90
30851;DHT22;17567;48.382;9.102;2023-08-06T08:43:59;13.90;99.90
30851;DHT22;17567;48.382;9.102;2023-08-06T08:49:03;13.90;99.90
30851;DHT22;17567;48.382;9.102;2023-08-06T08:54:04;14.00;99.90
30851;DHT22;17567;48.382;9.102;2023-08-06T08:59:04;13.90;99.90
30851;DHT22;17567;48.382;9.102;2023-08-06T09:04:05;14.00;99.90
30851;DHT22;17567;48.382;9.102;2023-08-06T09:09:09;13.60;99.90
30851;DHT22;17567;48.382;9.102;2023-08-06T09:14:12;13.70;99.90
30851;DHT22;17567;48.382;9.102;2023-08-06T09:19:13;13.80;99.90
30851;DHT22;17567;48.382;9.102;2023-08-06T09:24:17;14.00;99.90
30851;DHT22;17567;48.382;9.102;2023-08-06T09:29:18;13.70;99.90
30851;DHT22;17567;48.382;9.102;2023-08-06T09:34:22;13.60;99.90
30851;DHT22;17567;48.382;9.102;2023-08-06T09:39:30;13.80;99.90
30851;DHT22;17567;48.382;9.102;2023-08-06T09:44:32;13.70;99.90
30851;DHT22;17567;48.382;9.102;2023-08-06T09:54:39;13.50;99.90
30851;DHT22;17567;48.382;9.102;2023-08-06T09:59:42;13.70;99.90
30851;DHT22;17567;48.382;9.102;2023-08-06T10:04:44;13.50;99.90
30851;DHT22;17567;48.382;9.102;2023-08-06T10:09:46;13.70;99.90
30851;DHT22;17567;48.382;9.102;2023-08-06T10:14:48;13.60;99.90
30851;DHT22;17567;48.382;9.102;2023-08-06T10:19:51;13.50;99.90
30851;DHT22;17567;48.382;9.102;2023-08-06T10:24:57;13.20;99.90
30851;DHT22;17567;48.382;9.102;2023-08-06T10:30:23;13.30;99.90
30851;DHT22;17567;48.382;9.102;2023-08-06T10:40:33;13.50;99.90
30851;DHT22;17567;48.382;9.102;2023-08-06T10:45:35;13.30;99.90
30851;DHT22;17567;48.382;9.102;2023-08-06T10:50:36;13.40;99.90
30851;DHT22;17567;48.382;9.102;2023-08-06T10:55:37;13.30;99.90
30851;DHT22;17567;48.382;9.102;2023-08-06T11:00:38;13.40;99.90
30851;DHT22;17567;48.382;9.102;2023-08-06T11:05:39;13.40;99.90
30851;DHT22;17567;48.382;9.102;2023-08-06T11:10:40;13.50;99.90
30851;DHT22;17567;48.382;9.102;2023-08-06T11:15:40;13.40;99.90
30851;DHT22;17567;48.382;9.102;2023-08-06T11:20:41;13.40;99.90
30851;DHT22;17567;48.382;9.102;2023-08-06T11:25:45;13.60;99.90
30851;DHT22;17567;48.382;9.102;2023-08-06T11:30:46;13.70;99.90
30851;DHT22;17567;48.382;9.102;2023-08-06T11:35:48;13.80;99.90
30851;DHT22;17567;48.382;9.102;2023-08-06T11:40:50;13.70;99.90
30851;DHT22;17567;48.382;9.102;2023-08-06T11:45:51;13.80;99.90
30851;DHT22;17567;48.382;9.102;2023-08-06T11:50:54;13.90;99.90
30851;DHT22;17567;48.382;9.102;2023-08-06T11:55:56;13.80;99.90
30851;DHT22;17567;48.382;9.102;2023-08-06T12:00:57;13.80;99.90
30851;DHT22;17567;48.382;9.102;2023-08-06T12:05:58;13.90;99.90
30851;DHT22;17567;48.382;9.102;2023-08-06T12:10:59;13.90;99.90
30851;DHT22;17567;48.382;9.102;2023-08-06T12:16:00;13.80;99.90
30851;DHT22;17567;48.382;9.102;2023-08-06T12:21:00;13.80;99.90
30851;DHT22;17567;48.382;9.102;2023-08-06T12:26:01;13.70;99.90
30851;DHT22;17567;48.382;9.102;2023-08-06T12:31:02;13.60;99.90
30851;DHT22;17567;48.382;9.102;2023-08-06T12:36:02;13.40;99.90
30851;DHT22;17567;48.382;9.102;2023-08-06T12:41:06;13.40;99.90
30851;DHT22;17567;48.382;9.102;2023-08-06T12:46:07;13.60;99.90
30851;DHT22;17567;48.382;9.102;2023-08-06T12:51:08;13.80;99.90
30851;DHT22;17567;48.382;9.102;2023-08-06T12:56:08;14.00;99.90
30851;DHT22;17567;48.382;9.102;2023-08-06T13:01:09;14.00;99.90
30851;DHT22;17567;48.382;9.102;2023-08-06T13:06:09;13.80;99.90
30851;DHT22;17567;48.382;9.102;2023-08-06T13:11:10;14.00;99.90
30851;DHT22;17567;48.382;9.102;2023-08-06T13:16:11;14.20;99.90
30851;DHT22;17567;48.382;9.102;2023-08-06T13:21:11;14.10;99.90
30851;DHT22;17567;48.382;9.102;2023-08-06T13:26:12;13.90;99.90
30851;DHT22;17567;48.382;9.102;2023-08-06T13:31:13;14.20;99.90
30851;DHT22;17567;48.382;9.102;2023-08-06T13:36:14;14.20;99.90
30851;DHT22;17567;48.382;9.102;2023-08-06T13:41:15;14.20;99.90
30851;DHT22;17567;48.382;9.102;2023-08-06T13:46:17;14.30;99.90
30851;DHT22;17567;48.382;9.102;2023-08-06T13:51:19;14.50;99.90
30851;DHT22;17567;48.382;9.102;2023-08-06T13:56:20;14.60;99.90
30851;DHT22;17567;48.382;9.102;2023-08-06T14:01:21;14.60;99.90
30851;DHT22;17567;48.382;9.102;2023-08-06T14:06:21;14.50;99.90
30851;DHT22;17567;48.382;9.102;2023-08-06T14:11:22;14.60;99.90
30851;DHT22;17567;48.382;9.102;2023-08-06T14:16:23;14.80;99.90
30851;DHT22;17567;48.382;9.102;2023-08-06T14:21:23;14.60;99.90
30851;DHT22;17567;48.382;9.102;2023-08-06T14:26:24;14.60;99.90
30851;DHT22;17567;48.382;9.102;2023-08-06T14:31:24;14.50;99.90
30851;DHT22;17567;48.382;9.102;2023-08-06T14:36:26;14.50;99.90
30851;DHT22;17567;48.382;9.102;2023-08-06T14:41:27;14.40;99.90
30851;DHT22;17567;48.382;9.102;2023-08-06T14:46:30;14.40;99.90
30851;DHT22;17567;48.382;9.102;2023-08-06T14:51:31;14.20;99.90
30851;DHT22;17567;48.382;9.102;2023-08-06T15:01:34;13.40;99.90
30851;DHT22;17567;48.382;9.102;2023-08-06T15:06:35;13.50;99.90
30851;DHT22;17567;48.382;9.102;2023-08-06T15:11:35;13.50;99.90
30851;DHT22;17567;48.382;9.102;2023-08-06T15:16:36;13.50;99.90
30851;DHT22;17567;48.382;9.102;2023-08-06T15:21:37;13.50;99.90
30851;DHT22;17567;48.382;9.102;2023-08-06T15:26:37;13.60;99.90
30851;DHT22;17567;48.382;9.102;2023-08-06T15:31:39;13.80;99.90
30851;DHT22;17567;48.382;9.102;2023-08-06T15:36:42;13.70;99.90
30851;DHT22;17567;48.382;9.102;2023-08-06T15:46:51;13.90;99.90
30851;DHT22;17567;48.382;9.102;2023-08-06T15:51:51;13.70;99.90
30851;DHT22;17567;48.382;9.102;2023-08-06T15:56:55;13.80;99.90
30851;DHT22;17567;48.382;9.102;2023-08-06T16:01:56;13.80;99.90
30851;DHT22;17567;48.382;9.102;2023-08-06T16:07:02;14.00;99.90
30851;DHT22;17567;48.382;9.102;2023-08-06T16:12:03;13.90;99.90
30851;DHT22;17567;48.382;9.102;2023-08-06T16:17:04;13.90;99.90
30851;DHT22;17567;48.382;9.102;2023-08-06T16:22:04;13.80;99.90
30851;DHT22;17567;48.382;9.102;2023-08-06T16:27:05;13.50;99.90
30851;DHT22;17567;48.382;9.102;2023-08-06T16:32:06;13.70;99.90
30851;DHT22;17567;48.382;9.102;2023-08-06T16:37:07;13.60;99.90
30851;DHT22;17567;48.382;9.102;2023-08-06T16:42:08;13.60;99.90
30851;DHT22;17567;48.382;9.102;2023-08-06T16:47:08;13.70;99.90
30851;DHT22;17567;48.382;9.102;2023-08-06T16:52:09;13.80;99.90
30851;DHT22;17567;48.382;9.102;2023-08-06T16:57:11;13.80;99.90
30851;DHT22;17567;48.382;9.102;2023-08-06T17:02:12;13.70;99.90
30851;DHT22;17567;48.382;9.102;2023-08-06T17:12:15;13.30;99.90
30851;DHT22;17567;48.382;9.102;2023-08-06T17:17:20;13.30;99.90
30851;DHT22;17567;48.382;9.102;2023-08-06T17:22:20;13.40;99.90
30851;DHT22;17567;48.382;9.102;2023-08-06T17:32:24;13.10;99.90
30851;DHT22;17567;48.382;9.102;2023-08-06T17:37:24;13.10;99.90
30851;DHT22;17567;48.382;9.102;2023-08-06T17:42:25;12.70;99.90
30851;DHT22;17567;48.382;9.102;2023-08-06T17:47:26;12.70;99.90
30851;DHT22;17567;48.382;9.102;2023-08-06T17:52:26;12.50;99.90
30851;DHT22;17567;48.382;9.102;2023-08-06T17:57:27;12.60;99.90
30851;DHT22;17567;48.382;9.102;2023-08-06T18:02:28;12.60;99.90
30851;DHT22;17567;48.382;9.102;2023-08-06T18:07:28;12.60;99.90
30851;DHT22;17567;48.382;9.102;2023-08-06T18:12:29;12.40;99.90
30851;DHT22;17567;48.382;9.102;2023-08-06T18:17:30;12.50;99.90
30851;DHT22;17567;48.382;9.102;2023-08-06T18:22:30;12.60;99.90
30851;DHT22;17567;48.382;9.102;2023-08-06T18:27:32;12.60;99.90
30851;DHT22;17567;48.382;9.102;2023-08-06T18:32:32;12.50;99.90
30851;DHT22;17567;48.382;9.102;2023-08-06T18:37:33;12.40;99.90
30851;DHT22;17567;48.382;9.102;2023-08-06T18:42:35;12.50;99.90
30851;DHT22;17567;48.382;9.102;2023-08-06T18:47:36;12.30;99.90
30851;DHT22;17567;48.382;9.102;2023-08-06T18:52:36;12.20;99.90
30851;DHT22;17567;48.382;9.102;2023-08-06T18:57:38;12.10;99.90
30851;DHT22;17567;48.382;9.102;2023-08-06T19:02:39;12.10;99.90
30851;DHT22;17567;48.382;9.102;2023-08-06T19:07:39;12.00;99.90
30851;DHT22;17567;48.382;9.102;2023-08-06T19:12:40;12.20;99.90
30851;DHT22;17567;48.382;9.102;2023-08-06T19:17:40;12.10;99.90
30851;DHT22;17567;48.382;9.102;2023-08-06T19:22:41;12.00;99.90
30851;DHT22;17567;48.382;9.102;2023-08-06T19:27:42;12.00;99.90
30851;DHT22;17567;48.382;9.102;2023-08-06T19:32:42;12.10;99.90
30851;DHT22;17567;48.382;9.102;2023-08-06T19:37:43;12.00;99.90
30851;DHT22;17567;48.382;9.102;2023-08-06T19:42:44;11.80;99.90
30851;DHT22;17567;48.382;9.102;2023-08-06T19:47:45;11.90;99.90
30851;DHT22;17567;48.382;9.102;2023-08-06T19:52:45;11.80;99.90
30851;DHT22;17567;48.382;9.102;2023-08-06T19:57:46;11.70;99.90
30851;DHT22;17567;48.382;9.102;2023-08-06T20:02:47;11.70;99.90
30851;DHT22;17567;48.382;9.102;2023-08-06T20:07:47;11.60;99.90
30851;DHT22;17567;48.382;9.102;2023-08-06T20:12:48;11.60;99.90
30851;DHT22;17567;48.382;9.102;2023-08-06T20:17:48;11.50;99.90
30851;DHT22;17567;48.382;9.102;2023-08-06T20:22:49;11.40;99.90
30851;DHT22;17567;48.382;9.102;2023-08-06T20:27:49;11.30;99.90
30851;DHT22;17567;48.382;9.102;2023-08-06T20:32:50;11.30;99.90
30851;DHT22;17567;48.382;9.102;2023-08-06T20:37:51;11.40;99.90
30851;DHT22;17567;48.382;9.102;2023-08-06T20:42:51;11.30;99.90
30851;DHT22;17567;48.382;9.102;2023-08-06T20:47:52;11.30;99.90
30851;DHT22;17567;48.382;9.102;2023-08-06T20:52:52;11.30;99.90
30851;DHT22;17567;48.382;9.102;2023-08-06T20:57:53;11.20;99.90
30851;DHT22;17567;48.382;9.102;2023-08-06T21:02:54;11.20;99.90
30851;DHT22;17567;48.382;9.102;2023-08-06T21:07:55;11.10;99.90
30851;DHT22;17567;48.382;9.102;2023-08-06T21:12:56;11.00;99.90
30851;DHT22;17567;48.382;9.102;2023-08-06T21:17:56;11.00;99.90
30851;DHT22;17567;48.382;9.102;2023-08-06T21:22:57;10.90;99.90
30851;DHT22;17567;48.382;9.102;2023-08-06T21:27:58;10.90;99.90
30851;DHT22;17567;48.382;9.102;2023-08-06T21:32:58;11.00;99.90
30851;DHT22;17567;48.382;9.102;2023-08-06T21:37:59;10.90;99.90
30851;DHT22;17567;48.382;9.102;2023-08-06T21:42:59;10.80;99.90
30851;DHT22;17567;48.382;9.102;2023-08-06T21:48:00;10.90;99.90
30851;DHT22;17567;48.382;9.102;2023-08-06T21:53:01;11.00;99.90
30851;DHT22;17567;48.382;9.102;2023-08-06T21:58:02;10.90;99.90
30851;DHT22;17567;48.382;9.102;2023-08-06T22:03:03;10.90;99.90
30851;DHT22;17567;48.382;9.102;2023-08-06T22:08:03;10.70;99.90
30851;DHT22;17567;48.382;9.102;2023-08-06T22:13:04;10.70;99.90
30851;DHT22;17567;48.382;9.102;2023-08-06T22:18:05;10.60;99.90
30851;DHT22;17567;48.382;9.102;2023-08-06T22:23:06;10.70;99.90
30851;DHT22;17567;48.382;9.102;2023-08-06T22:28:07;10.80;99.90
30851;DHT22;17567;48.382;9.102;2023-08-06T22:33:08;10.80;99.90
30851;DHT22;17567;48.382;9.102;2023-08-06T22:38:09;10.90;99.90
30851;DHT22;17567;48.382;9.102;2023-08-06T22:43:10;10.80;99.90
30851;DHT22;17567;48.382;9.102;2023-08-06T22:48:10;10.80;99.90
30851;DHT22;17567;48.382;9.102;2023-08-06T22:53:11;10.80;99.90
30851;DHT22;17567;48.382;9.102;2023-08-06T22:58:11;10.70;99.90
30851;DHT22;17567;48.382;9.102;2023-08-06T23:03:12;10.70;99.90
30851;DHT22;17567;48.382;9.102;2023-08-06T23:08:13;10.70;99.90
30851;DHT22;17567;48.382;9.102;2023-08-06T23:13:13;10.70;99.90
30851;DHT22;17567;48.382;9.102;2023-08-06T23:18:15;10.80;99.90
30851;DHT22;17567;48.382;9.102;2023-08-06T23:23:16;10.70;99.90
30851;DHT22;17567;48.382;9.102;2023-08-06T23:28:17;10.60;99.90
30851;DHT22;17567;48.382;9.102;2023-08-06T23:33:17;10.70;99.90
30851;DHT22;17567;48.382;9.102;2023-08-06T23:38:18;10.70;99.90
30851;DHT22;17567;48.382;9.102;2023-08-06T23:43:19;10.60;99.90
30851;DHT22;17567;48.382;9.102;2023-08-06T23:48:19;10.60;99.90
30851;DHT22;17567;48.382;9.102;2023-08-06T23:53:20;10.70;99.90
30851;DHT22;17567;48.382;9.102;2023-08-06T23:58:21;10.60;99.90
